createdAt,value
2017-12-30T00:00:24.942Z,6.24
2017-12-30T00:02:53.586Z,6.09
2017-12-30T00:05:22.621Z,6.07
2017-12-30T00:07:51.719Z,6.11
2017-12-30T00:10:20.409Z,6.01
2017-12-30T00:12:49.258Z,6.03
2017-12-30T00:15:17.979Z,5.93
2017-12-30T00:17:46.617Z,6.00
2017-12-30T00:20:16.174Z,5.97
2017-12-30T00:22:44.859Z,6.00
2017-12-30T00:25:14.145Z,5.96
2017-12-30T00:27:42.939Z,5.99
2017-12-30T00:30:11.630Z,5.97
2017-12-30T00:32:40.273Z,6.14
2017-12-30T00:35:09.266Z,6.21
2017-12-30T00:37:37.995Z,6.19
2017-12-30T00:40:06.627Z,6.14
2017-12-30T00:42:36.244Z,6.02
2017-12-30T00:45:04.938Z,6.13
2017-12-30T00:47:33.659Z,6.14
2017-12-30T00:50:02.694Z,6.27
2017-12-30T00:52:32.161Z,6.28
2017-12-30T00:55:00.782Z,6.34
2017-12-30T00:57:30.527Z,6.35
2017-12-30T00:59:59.238Z,6.37
2017-12-30T01:02:27.885Z,6.09
2017-12-30T01:04:56.610Z,6.11
2017-12-30T01:07:25.246Z,6.17
2017-12-30T01:09:54.583Z,6.08
2017-12-30T01:12:23.378Z,6.19
2017-12-30T01:14:52.078Z,6.10
2017-12-30T01:17:20.713Z,6.18
2017-12-30T01:19:50.260Z,6.18
2017-12-30T01:22:18.948Z,6.02
2017-12-30T01:24:47.595Z,5.75
2017-12-30T01:27:16.588Z,5.59
2017-12-30T01:29:45.313Z,5.73
2017-12-30T01:32:13.948Z,5.65
2017-12-30T01:34:43.566Z,5.76
2017-12-30T01:37:12.291Z,5.47
2017-12-30T01:39:40.964Z,5.51
2017-12-30T01:42:09.766Z,5.62
2017-12-30T01:44:38.457Z,5.33
2017-12-30T01:47:07.076Z,5.40
2017-12-30T01:49:35.836Z,5.32
2017-12-30T01:52:04.404Z,5.28
2017-12-30T01:54:32.940Z,5.18
2017-12-30T01:57:02.501Z,5.26
2017-12-30T01:59:31.187Z,5.35
2017-12-30T02:01:59.757Z,5.35
2017-12-30T02:04:28.559Z,5.40
2017-12-30T02:06:57.193Z,5.48
2017-12-30T02:09:26.644Z,5.70
2017-12-30T02:11:55.323Z,5.60
2017-12-30T02:14:24.016Z,5.40
2017-12-30T02:16:53.523Z,5.53
2017-12-30T02:19:22.308Z,5.58
2017-12-30T02:21:50.847Z,5.78
2017-12-30T02:24:20.394Z,5.77
2017-12-30T02:26:49.188Z,5.58
2017-12-30T02:29:17.874Z,5.47
2017-12-30T02:31:46.445Z,5.83
2017-12-30T02:34:15.246Z,5.86
2017-12-30T02:36:43.881Z,5.70
2017-12-30T02:39:13.332Z,5.90
2017-12-30T02:41:42.226Z,5.87
2017-12-30T02:44:10.911Z,5.86
2017-12-30T02:46:39.527Z,5.99
2017-12-30T02:49:08.103Z,6.20
2017-12-30T02:51:36.859Z,6.19
2017-12-30T02:54:05.548Z,5.93
2017-12-30T02:56:34.229Z,5.83
2017-12-30T02:59:02.916Z,5.91
2017-12-30T03:01:31.562Z,5.89
2017-12-30T03:04:00.291Z,5.75
2017-12-30T03:06:28.974Z,5.66
2017-12-30T03:08:57.763Z,5.77
2017-12-30T03:11:26.555Z,5.76
2017-12-30T03:13:55.300Z,5.89
2017-12-30T03:16:24.024Z,5.74
2017-12-30T03:18:52.918Z,5.97
2017-12-30T03:21:21.554Z,6.15
2017-12-30T03:23:50.891Z,6.05
2017-12-30T03:26:19.842Z,5.93
2017-12-30T03:28:49.296Z,5.74
2017-12-30T03:31:17.925Z,5.72
2017-12-30T03:33:47.590Z,6.04
2017-12-30T03:36:16.236Z,5.93
2017-12-30T03:38:44.962Z,5.95
2017-12-30T03:41:13.757Z,5.87
2017-12-30T03:43:42.443Z,5.74
2017-12-30T03:46:11.012Z,5.89
2017-12-30T03:48:39.976Z,5.72
2017-12-30T03:51:09.422Z,5.81
2017-12-30T03:53:38.057Z,5.71
2017-12-30T03:56:07.498Z,5.77
2017-12-30T03:58:36.193Z,5.67
2017-12-30T04:01:04.814Z,5.50
2017-12-30T04:03:34.378Z,5.34
2017-12-30T04:06:03.072Z,5.42
2017-12-30T04:08:31.689Z,5.26
2017-12-30T04:11:00.647Z,5.05
2017-12-30T04:13:29.183Z,5.16
2017-12-30T04:15:58.570Z,5.09
2017-12-30T04:18:28.137Z,5.05
2017-12-30T04:20:56.823Z,4.89
2017-12-30T04:23:25.392Z,4.84
2017-12-30T04:25:54.194Z,4.78
2017-12-30T04:28:22.782Z,4.70
2017-12-30T04:30:51.406Z,4.61
2017-12-30T04:33:20.966Z,4.78
2017-12-30T04:35:49.651Z,4.74
2017-12-30T04:38:18.280Z,4.57
2017-12-30T04:40:47.617Z,4.49
2017-12-30T04:43:16.323Z,4.44
2017-12-30T04:45:44.960Z,4.56
2017-12-30T04:48:14.518Z,4.38
2017-12-30T04:50:43.203Z,4.40
2017-12-30T04:53:11.889Z,4.45
2017-12-30T04:55:40.574Z,4.43
2017-12-30T04:58:09.261Z,4.40
2017-12-30T05:00:37.946Z,4.32
2017-12-30T05:03:06.982Z,4.47
2017-12-30T05:05:36.448Z,4.49
2017-12-30T05:08:04.987Z,4.27
2017-12-30T05:10:34.017Z,4.73
2017-12-30T05:13:02.654Z,4.68
2017-12-30T05:15:32.113Z,4.88
2017-12-30T05:18:00.996Z,5.05
2017-12-30T05:20:29.632Z,4.89
2017-12-30T05:22:58.968Z,4.88
2017-12-30T05:25:27.917Z,4.84
2017-12-30T05:27:57.385Z,4.07
2017-12-30T05:30:26.024Z,4.34
2017-12-30T05:32:54.954Z,4.44
2017-12-30T05:35:23.588Z,4.27
2017-12-30T05:37:53.050Z,3.90
2017-12-30T05:40:21.835Z,4.07
2017-12-30T05:42:50.521Z,4.25
2017-12-30T05:45:19.158Z,4.23
2017-12-30T05:47:48.714Z,4.08
2017-12-30T05:50:17.400Z,4.13
2017-12-30T05:52:46.702Z,4.04
2017-12-30T05:55:15.529Z,3.63
2017-12-30T05:57:44.994Z,3.86
2017-12-30T06:00:13.568Z,3.88
2017-12-30T06:02:42.304Z,3.90
2017-12-30T06:05:11.766Z,4.08
2017-12-30T06:07:40.450Z,3.76
2017-12-30T06:10:09.186Z,3.87
2017-12-30T06:12:38.522Z,4.14
2017-12-30T06:15:07.221Z,3.93
2017-12-30T06:17:35.906Z,4.11
2017-12-30T06:20:04.593Z,4.25
2017-12-30T06:22:33.224Z,4.31
2017-12-30T06:25:02.886Z,4.23
2017-12-30T06:27:31.533Z,4.46
2017-12-30T06:30:00.075Z,4.14
2017-12-30T06:32:28.845Z,4.24
2017-12-30T06:34:57.423Z,4.11
2017-12-30T06:37:26.119Z,4.22
2017-12-30T06:39:55.210Z,4.33
2017-12-30T06:42:23.896Z,4.43
2017-12-30T06:44:52.533Z,4.45
2017-12-30T06:47:22.091Z,4.49
2017-12-30T06:49:50.775Z,4.57
2017-12-30T06:52:19.413Z,4.55
2017-12-30T06:54:48.954Z,4.75
2017-12-30T06:57:17.503Z,4.68
2017-12-30T06:59:46.946Z,4.73
2017-12-30T07:02:15.630Z,4.87
2017-12-30T07:04:44.317Z,4.94
2017-12-30T07:07:12.967Z,4.93
2017-12-30T07:09:41.996Z,5.10
2017-12-30T07:12:10.681Z,5.04
2017-12-30T07:14:39.321Z,4.99
2017-12-30T07:17:08.880Z,5.08
2017-12-30T07:19:37.452Z,5.12
2017-12-30T07:22:06.149Z,5.27
2017-12-30T07:24:34.933Z,5.14
2017-12-30T07:27:03.521Z,5.36
2017-12-30T07:29:32.152Z,5.48
2017-12-30T07:32:01.814Z,5.37
2017-12-30T07:34:30.434Z,5.48
2017-12-30T07:36:59.900Z,5.53
2017-12-30T07:39:28.584Z,5.81
2017-12-30T07:41:57.271Z,5.87
2017-12-30T07:44:25.907Z,5.85
2017-12-30T07:46:55.467Z,6.00
2017-12-30T07:49:24.043Z,5.84
2017-12-30T07:51:52.628Z,5.93
2017-12-30T07:54:21.475Z,6.06
2017-12-30T07:56:50.922Z,6.01
2017-12-30T07:59:19.564Z,5.90
2017-12-30T08:01:49.281Z,5.99
2017-12-30T08:04:18.000Z,6.06
2017-12-30T08:06:46.642Z,6.19
2017-12-30T08:09:16.184Z,6.17
2017-12-30T08:11:44.782Z,6.21
2017-12-30T08:14:13.416Z,6.18
2017-12-30T08:16:42.967Z,6.31
2017-12-30T08:19:11.554Z,6.58
2017-12-30T08:21:40.298Z,6.45
2017-12-30T08:24:09.022Z,6.57
2017-12-30T08:26:37.658Z,6.85
2017-12-30T08:29:07.118Z,6.74
2017-12-30T08:31:35.905Z,6.67
2017-12-30T08:34:06.221Z,6.54
2017-12-30T08:36:34.909Z,6.75
2017-12-30T08:39:03.644Z,6.57
2017-12-30T08:41:33.104Z,6.98
2017-12-30T08:44:01.691Z,6.85
2017-12-30T08:46:30.363Z,6.90
2017-12-30T08:48:59.062Z,6.96
2017-12-30T08:51:27.683Z,6.72
2017-12-30T08:53:57.246Z,7.11
2017-12-30T08:56:25.932Z,7.04
2017-12-30T08:58:54.617Z,7.32
2017-12-30T09:01:23.402Z,7.37
2017-12-30T09:03:52.098Z,7.34
2017-12-30T09:06:20.713Z,7.21
2017-12-30T09:08:49.485Z,7.20
2017-12-30T09:11:18.157Z,7.25
2017-12-30T09:13:46.734Z,7.16
2017-12-30T09:16:15.461Z,7.30
2017-12-30T09:18:44.929Z,7.22
2017-12-30T09:21:13.573Z,7.24
2017-12-30T09:23:42.665Z,7.29
2017-12-30T09:26:16.920Z,7.48
2017-12-30T09:28:45.697Z,7.35
2017-12-30T09:31:14.401Z,7.37
2017-12-30T09:33:43.089Z,7.51
2017-12-30T09:36:11.853Z,7.76
2017-12-30T09:38:40.558Z,7.44
2017-12-30T09:41:09.244Z,7.57
2017-12-30T09:43:38.281Z,7.58
2017-12-30T09:46:07.765Z,7.63
2017-12-30T09:48:37.244Z,7.80
2017-12-30T09:51:06.040Z,7.82
2017-12-30T09:53:34.716Z,7.81
2017-12-30T09:56:03.343Z,7.77
2017-12-30T09:58:32.910Z,7.95
2017-12-30T10:01:01.495Z,7.85
2017-12-30T10:03:30.084Z,8.07
2017-12-30T10:06:00.066Z,8.02
2017-12-30T10:08:28.733Z,8.03
2017-12-30T10:10:58.181Z,7.89
2017-12-30T10:13:26.976Z,8.09
2017-12-30T10:15:55.614Z,8.11
2017-12-30T10:18:24.948Z,8.29
2017-12-30T10:20:53.746Z,8.31
2017-12-30T10:23:22.490Z,8.28
2017-12-30T10:25:51.217Z,8.25
2017-12-30T10:28:20.013Z,8.43
2017-12-30T10:30:48.640Z,8.43
2017-12-30T10:33:18.098Z,8.49
2017-12-30T10:35:47.028Z,8.56
2017-12-30T10:38:16.447Z,8.85
2017-12-30T10:40:45.175Z,8.92
2017-12-30T10:43:14.167Z,8.80
2017-12-30T10:45:42.800Z,9.14
2017-12-30T10:48:12.264Z,8.99
2017-12-30T10:50:42.036Z,8.88
2017-12-30T10:53:10.656Z,9.04
2017-12-30T10:55:39.243Z,9.10
2017-12-30T10:58:08.090Z,9.11
2017-12-30T11:00:42.342Z,8.98
2017-12-30T11:03:11.121Z,9.34
2017-12-30T11:05:39.813Z,9.30
2017-12-30T11:08:08.508Z,9.38
2017-12-30T11:10:37.294Z,9.25
2017-12-30T11:13:05.923Z,9.19
2017-12-30T11:15:35.228Z,9.56
2017-12-30T11:18:04.979Z,9.36
2017-12-30T11:20:33.719Z,9.54
2017-12-30T11:23:03.181Z,9.37
2017-12-30T11:25:32.132Z,9.32
2017-12-30T11:28:00.859Z,9.38
2017-12-30T11:30:29.546Z,9.70
2017-12-30T11:32:58.357Z,9.64
2017-12-30T11:35:27.125Z,9.63
2017-12-30T11:37:55.811Z,9.70
2017-12-30T11:40:24.694Z,9.83
2017-12-30T11:42:53.234Z,9.86
2017-12-30T11:45:22.625Z,10.10
2017-12-30T11:47:52.288Z,10.03
2017-12-30T11:50:20.994Z,10.09
2017-12-30T11:52:49.551Z,10.18
2017-12-30T11:55:18.554Z,10.15
2017-12-30T11:57:47.233Z,10.29
2017-12-30T12:00:15.932Z,10.58
2017-12-30T12:02:44.625Z,10.08
2017-12-30T12:05:13.290Z,10.31
2017-12-30T12:07:41.876Z,10.80
2017-12-30T12:10:11.445Z,10.60
2017-12-30T12:12:40.849Z,10.59
2017-12-30T12:15:15.792Z,10.75
2017-12-30T12:17:44.506Z,10.41
2017-12-30T12:20:13.092Z,10.70
2017-12-30T12:22:41.792Z,10.49
2017-12-30T12:25:10.459Z,10.60
2017-12-30T12:27:39.150Z,10.78
2017-12-30T12:30:07.835Z,10.69
2017-12-30T12:32:36.452Z,10.94
2017-12-30T12:35:05.150Z,11.05
2017-12-30T12:37:34.199Z,11.13
2017-12-30T12:40:02.931Z,11.20
2017-12-30T12:42:31.614Z,11.06
2017-12-30T12:45:00.814Z,10.91
2017-12-30T12:47:29.501Z,11.07
2017-12-30T12:49:58.134Z,10.97
2017-12-30T12:52:27.991Z,10.75
2017-12-30T12:54:56.578Z,10.81
2017-12-30T12:57:25.265Z,10.57
2017-12-30T12:59:53.856Z,10.59
2017-12-30T13:02:22.475Z,10.59
2017-12-30T13:04:51.937Z,10.59
2017-12-30T13:07:20.623Z,10.74
2017-12-30T13:09:49.309Z,10.73
2017-12-30T13:12:17.883Z,10.61
2017-12-30T13:14:46.967Z,10.75
2017-12-30T13:17:15.674Z,10.79
2017-12-30T13:19:44.360Z,10.73
2017-12-30T13:22:13.144Z,10.63
2017-12-30T13:24:41.788Z,10.39
2017-12-30T13:27:10.421Z,10.64
2017-12-30T13:29:39.106Z,10.66
2017-12-30T13:32:07.767Z,10.64
2017-12-30T13:34:36.410Z,10.82
2017-12-30T13:37:05.876Z,11.00
2017-12-30T13:39:34.521Z,11.04
2017-12-30T13:42:03.189Z,11.26
2017-12-30T13:44:32.850Z,11.84
2017-12-30T13:47:01.500Z,12.41
2017-12-30T13:49:30.170Z,12.57
2017-12-30T14:23:55.960Z,20.52
2017-12-30T14:26:24.636Z,19.02
2017-12-30T14:28:53.331Z,18.12
2017-12-30T14:31:22.391Z,17.79
2017-12-30T14:33:51.109Z,17.37
2017-12-30T14:36:19.760Z,17.63
2017-12-30T14:38:48.747Z,17.24
2017-12-30T14:41:17.475Z,17.23
2017-12-30T14:43:46.160Z,16.91
2017-12-30T14:46:15.154Z,16.57
2017-12-30T14:48:43.741Z,16.17
2017-12-30T14:51:12.426Z,15.96
2017-12-30T14:53:41.247Z,16.05
2017-12-30T14:56:09.979Z,15.71
2017-12-30T14:58:38.663Z,15.06
2017-12-30T15:01:07.358Z,14.94
2017-12-30T15:03:36.023Z,14.91
2017-12-30T15:06:04.665Z,14.93
2017-12-30T15:08:34.283Z,14.66
2017-12-30T15:11:03.622Z,14.59
2017-12-30T15:13:32.269Z,14.68
2017-12-30T15:16:01.165Z,14.20
2017-12-30T15:18:29.784Z,14.03
2017-12-30T15:20:58.472Z,14.03
2017-12-30T15:23:27.255Z,13.66
2017-12-30T15:25:55.911Z,13.65
2017-12-30T15:28:24.472Z,13.69
2017-12-30T15:30:54.233Z,13.60
2017-12-30T15:33:22.921Z,13.51
2017-12-30T15:35:51.561Z,13.22
2017-12-30T15:38:20.498Z,13.14
2017-12-30T15:40:49.144Z,12.87
2017-12-30T15:43:17.871Z,12.50
2017-12-30T15:45:46.608Z,12.12
2017-12-30T15:48:15.451Z,12.22
2017-12-30T15:50:44.086Z,12.18
2017-12-30T15:53:13.582Z,12.17
2017-12-30T15:55:43.045Z,12.09
2017-12-30T15:58:11.716Z,11.80
2017-12-30T16:00:40.411Z,11.65
2017-12-30T16:03:09.051Z,11.31
2017-12-30T16:05:39.249Z,10.89
2017-12-30T16:08:07.924Z,11.15
2017-12-30T16:10:36.477Z,11.08
2017-12-30T16:13:05.036Z,11.18
2017-12-30T16:15:34.608Z,10.87
2017-12-30T16:18:03.393Z,10.88
2017-12-30T16:20:32.176Z,10.53
2017-12-30T16:23:00.865Z,10.92
2017-12-30T16:25:29.417Z,11.19
2017-12-30T16:27:57.977Z,11.28
2017-12-30T16:30:27.450Z,11.22
2017-12-30T16:32:56.219Z,10.77
2017-12-30T16:35:24.861Z,10.50
2017-12-30T16:37:53.840Z,10.43
2017-12-30T16:40:23.157Z,10.44
2017-12-30T16:42:52.640Z,10.33
2017-12-30T16:45:22.217Z,10.08
2017-12-30T16:47:50.902Z,10.22
2017-12-30T16:50:19.540Z,10.46
2017-12-30T16:52:48.989Z,10.19
2017-12-30T16:55:17.673Z,10.03
2017-12-30T16:57:46.362Z,9.86
2017-12-30T17:00:15.143Z,9.65
2017-12-30T17:02:43.829Z,9.95
2017-12-30T17:05:12.475Z,9.90
2017-12-30T17:07:41.106Z,9.91
2017-12-30T17:10:09.737Z,10.09
2017-12-30T17:12:39.187Z,10.23
2017-12-30T17:15:07.893Z,10.25
2017-12-30T17:17:36.669Z,10.15
2017-12-30T17:20:05.302Z,9.65
2017-12-30T17:22:34.799Z,9.74
2017-12-30T17:25:04.263Z,9.78
2017-12-30T17:27:32.906Z,9.55
2017-12-30T17:30:01.679Z,9.70
2017-12-30T17:32:30.418Z,9.40
2017-12-30T17:34:59.981Z,9.47
2017-12-30T17:37:28.955Z,9.51
2017-12-30T17:40:00.640Z,9.73
2017-12-30T17:42:29.417Z,9.54
2017-12-30T17:44:58.148Z,9.45
2017-12-30T17:47:26.852Z,9.31
2017-12-30T17:49:55.729Z,9.22
2017-12-30T17:52:25.136Z,9.10
2017-12-30T17:54:54.602Z,8.88
2017-12-30T17:57:23.385Z,8.84
2017-12-30T17:59:52.173Z,8.97
2017-12-30T18:02:20.857Z,8.94
2017-12-30T18:04:49.850Z,8.91
2017-12-30T18:07:18.649Z,8.94
2017-12-30T18:09:47.432Z,8.99
2017-12-30T18:12:38.496Z,8.88
2017-12-30T18:15:08.370Z,9.17
2017-12-30T18:17:37.240Z,9.15
2017-12-30T18:20:06.249Z,8.96
2017-12-30T18:22:34.921Z,9.32
2017-12-30T18:25:03.564Z,9.06
2017-12-30T18:27:32.293Z,9.23
2017-12-30T18:30:00.975Z,9.07
2017-12-30T18:32:29.773Z,9.00
2017-12-30T18:34:58.964Z,9.14
2017-12-30T18:37:27.760Z,10.15
2017-12-30T18:39:56.392Z,9.71
2017-12-30T18:42:25.888Z,9.15
2017-12-30T18:44:55.353Z,9.31
2017-12-30T18:47:23.915Z,9.27
2017-12-30T18:49:52.617Z,9.27
2017-12-30T18:52:21.258Z,9.11
2017-12-30T18:54:49.985Z,9.07
2017-12-30T18:57:18.982Z,8.96
2017-12-30T18:59:47.637Z,8.89
2017-12-30T19:02:16.351Z,8.75
2017-12-30T19:04:45.037Z,8.43
2017-12-30T19:07:13.721Z,8.62
2017-12-30T19:12:17.942Z,8.82
2017-12-30T19:14:47.975Z,8.67
2017-12-30T19:17:17.177Z,8.68
2017-12-30T19:19:45.960Z,8.87
2017-12-30T19:22:14.596Z,8.71
2017-12-30T19:24:44.046Z,8.78
2017-12-30T19:27:12.829Z,8.85
2017-12-30T19:29:42.338Z,8.67
2017-12-30T19:32:11.848Z,8.21
2017-12-30T19:34:40.533Z,8.33
2017-12-30T19:37:09.119Z,8.51
2017-12-30T19:39:37.689Z,8.52
2017-12-30T19:42:06.733Z,8.61
2017-12-30T19:44:36.199Z,8.04
2017-12-30T19:47:04.888Z,8.03
2017-12-30T19:49:33.668Z,8.24
2017-12-30T19:52:02.431Z,8.33
2017-12-30T19:54:31.215Z,9.06
2017-12-30T19:56:59.998Z,8.54
2017-12-30T19:59:28.685Z,7.99
2017-12-30T20:01:57.328Z,8.27
2017-12-30T20:04:26.059Z,8.23
2017-12-30T20:06:54.689Z,8.06
2017-12-30T20:09:24.154Z,8.24
2017-12-30T20:11:53.244Z,8.18
2017-12-30T20:14:21.810Z,8.36
2017-12-30T20:16:50.520Z,8.34
2017-12-30T20:19:19.457Z,8.62
2017-12-30T20:21:48.911Z,8.75
2017-12-30T20:24:17.596Z,8.69
2017-12-30T20:26:46.380Z,8.90
2017-12-30T20:29:15.067Z,8.96
2017-12-30T20:31:43.653Z,8.78
2017-12-30T20:34:12.438Z,8.86
2017-12-30T20:36:41.026Z,8.54
2017-12-30T20:39:09.668Z,8.43
2017-12-30T20:41:38.397Z,8.51
2017-12-30T20:44:07.084Z,8.69
2017-12-30T20:46:35.770Z,8.61
2017-12-30T20:49:04.611Z,8.31
2017-12-30T20:51:34.061Z,8.07
2017-12-30T20:54:02.698Z,8.36
2017-12-30T20:56:32.343Z,8.29
2017-12-30T20:59:01.040Z,8.14
2017-12-30T21:01:29.626Z,8.38
2017-12-30T21:03:58.369Z,8.36
2017-12-30T21:06:27.098Z,8.53
2017-12-30T21:08:55.783Z,8.55
2017-12-30T21:11:24.567Z,8.31
2017-12-30T21:13:53.215Z,8.35
2017-12-30T21:16:21.939Z,8.38
2017-12-30T21:18:50.626Z,8.23
2017-12-30T21:21:19.311Z,7.99
2017-12-30T21:23:47.960Z,7.93
2017-12-30T21:26:16.683Z,7.53
2017-12-30T21:28:45.320Z,7.28
2017-12-30T21:31:14.625Z,7.14
2017-12-30T21:33:43.354Z,7.25
2017-12-30T21:36:11.951Z,7.01
2017-12-30T21:38:40.511Z,6.80
2017-12-30T21:41:09.308Z,6.69
2017-12-30T21:43:38.000Z,6.72
2017-12-30T21:46:06.784Z,6.81
2017-12-30T21:48:35.533Z,6.73
2017-12-30T21:51:05.031Z,6.75
2017-12-30T21:53:33.763Z,6.81
2017-12-30T21:56:02.755Z,6.82
2017-12-30T21:58:31.343Z,6.53
2017-12-30T22:00:59.884Z,6.46
2017-12-30T22:03:29.489Z,6.53
2017-12-30T22:05:58.937Z,6.43
2017-12-30T22:08:27.603Z,6.04
2017-12-30T22:10:56.371Z,6.26
2017-12-30T22:13:25.093Z,6.16
2017-12-30T22:15:53.731Z,6.02
2017-12-30T22:18:23.288Z,6.25
2017-12-30T22:20:51.861Z,6.14
2017-12-30T22:23:20.560Z,6.35
2017-12-30T22:25:49.344Z,6.04
2017-12-30T22:28:17.884Z,6.25
2017-12-30T22:30:47.332Z,6.55
2017-12-30T22:33:16.016Z,6.11
2017-12-30T22:35:44.703Z,6.00
2017-12-30T22:38:13.465Z,6.17
2017-12-30T22:40:42.173Z,5.41
2017-12-30T22:43:10.831Z,5.39
2017-12-30T22:45:39.544Z,5.24
2017-12-30T22:48:08.283Z,5.09
2017-12-30T22:50:37.739Z,5.01
2017-12-30T22:53:06.425Z,5.01
2017-12-30T22:55:35.319Z,4.96
2017-12-30T22:58:04.006Z,4.79
2017-12-30T23:03:37.167Z,4.59
2017-12-30T23:06:05.797Z,4.69
2017-12-30T23:08:34.457Z,4.78
2017-12-30T23:11:03.169Z,4.80
2017-12-30T23:13:32.185Z,4.85
2017-12-30T23:16:01.601Z,4.93
2017-12-30T23:18:31.070Z,4.94
2017-12-30T23:21:00.984Z,4.92
2017-12-30T23:23:29.632Z,4.90
2017-12-30T23:25:58.356Z,4.84
2017-12-30T23:28:27.349Z,4.92
2017-12-30T23:30:55.936Z,5.00
2017-12-30T23:33:24.621Z,5.48
2017-12-30T23:35:53.406Z,5.29
2017-12-30T23:38:22.095Z,5.47
2017-12-30T23:40:50.778Z,5.09
2017-12-30T23:43:19.920Z,5.01
2017-12-30T23:45:49.379Z,5.04
2017-12-30T23:48:18.064Z,4.97
2017-12-30T23:50:46.829Z,4.95
2017-12-30T23:53:15.534Z,5.12
2017-12-30T23:55:44.186Z,4.95
2017-12-30T23:58:13.060Z,5.03
